sensor_id;sensor_type;location;lat;lon;timestamp;P1;durP1;ratioP1;P2;durP2;ratioP2
11671;SDS011;5892;43.412;24.612;2023-06-10T00:00:39;11.37;;;6.40;;
11671;SDS011;5892;43.412;24.612;2023-06-10T00:03:07;10.43;;;6.07;;
11671;SDS011;5892;43.412;24.612;2023-06-10T00:05:33;8.40;;;6.40;;
11671;SDS011;5892;43.412;24.612;2023-06-10T00:08:14;10.70;;;6.20;;
11671;SDS011;5892;43.412;24.612;2023-06-10T00:10:44;7.47;;;5.30;;
11671;SDS011;5892;43.412;24.612;2023-06-10T00:13:11;6.90;;;4.63;;
11671;SDS011;5892;43.412;24.612;2023-06-10T00:15:38;4.67;;;4.17;;
11671;SDS011;5892;43.412;24.612;2023-06-10T00:18:06;6.97;;;4.50;;
11671;SDS011;5892;43.412;24.612;2023-06-10T00:20:35;7.90;;;4.10;;
11671;SDS011;5892;43.412;24.612;2023-06-10T00:23:04;5.73;;;4.10;;
11671;SDS011;5892;43.412;24.612;2023-06-10T00:25:33;4.43;;;4.00;;
11671;SDS011;5892;43.412;24.612;2023-06-10T00:28:00;4.93;;;3.60;;
11671;SDS011;5892;43.412;24.612;2023-06-10T00:30:27;4.10;;;3.47;;
11671;SDS011;5892;43.412;24.612;2023-06-10T00:32:54;5.47;;;3.50;;
11671;SDS011;5892;43.412;24.612;2023-06-10T00:35:21;6.63;;;3.63;;
11671;SDS011;5892;43.412;24.612;2023-06-10T00:37:47;4.57;;;3.50;;
11671;SDS011;5892;43.412;24.612;2023-06-10T00:40:16;7.27;;;3.70;;
11671;SDS011;5892;43.412;24.612;2023-06-10T00:42:42;5.17;;;3.60;;
11671;SDS011;5892;43.412;24.612;2023-06-10T00:45:10;5.17;;;3.40;;
11671;SDS011;5892;43.412;24.612;2023-06-10T00:47:37;8.43;;;4.37;;
11671;SDS011;5892;43.412;24.612;2023-06-10T00:50:06;4.30;;;3.60;;
11671;SDS011;5892;43.412;24.612;2023-06-10T00:52:33;5.93;;;3.70;;
11671;SDS011;5892;43.412;24.612;2023-06-10T00:55:01;4.70;;;3.87;;
11671;SDS011;5892;43.412;24.612;2023-06-10T00:57:30;5.07;;;3.90;;
11671;SDS011;5892;43.412;24.612;2023-06-10T00:59:57;4.03;;;3.47;;
11671;SDS011;5892;43.412;24.612;2023-06-10T01:02:24;5.20;;;3.60;;
11671;SDS011;5892;43.412;24.612;2023-06-10T01:04:51;3.77;;;3.40;;
11671;SDS011;5892;43.412;24.612;2023-06-10T01:07:23;4.87;;;3.43;;
11671;SDS011;5892;43.412;24.612;2023-06-10T01:09:55;5.53;;;3.53;;
11671;SDS011;5892;43.412;24.612;2023-06-10T01:12:31;4.43;;;3.20;;
11671;SDS011;5892;43.412;24.612;2023-06-10T01:15:00;6.60;;;3.23;;
11671;SDS011;5892;43.412;24.612;2023-06-10T01:17:29;3.93;;;3.30;;
11671;SDS011;5892;43.412;24.612;2023-06-10T01:19:56;5.23;;;3.50;;
11671;SDS011;5892;43.412;24.612;2023-06-10T01:22:26;8.00;;;3.57;;
11671;SDS011;5892;43.412;24.612;2023-06-10T01:24:57;4.50;;;3.50;;
11671;SDS011;5892;43.412;24.612;2023-06-10T01:27:25;5.43;;;3.50;;
11671;SDS011;5892;43.412;24.612;2023-06-10T01:29:57;4.03;;;3.23;;
11671;SDS011;5892;43.412;24.612;2023-06-10T01:32:32;6.37;;;3.60;;
11671;SDS011;5892;43.412;24.612;2023-06-10T01:35:04;3.73;;;3.23;;
11671;SDS011;5892;43.412;24.612;2023-06-10T01:37:35;3.80;;;3.40;;
11671;SDS011;5892;43.412;24.612;2023-06-10T01:40:05;5.73;;;3.40;;
11671;SDS011;5892;43.412;24.612;2023-06-10T01:42:33;5.93;;;3.60;;
11671;SDS011;5892;43.412;24.612;2023-06-10T01:45:00;3.60;;;3.30;;
11671;SDS011;5892;43.412;24.612;2023-06-10T01:47:27;4.40;;;3.13;;
11671;SDS011;5892;43.412;24.612;2023-06-10T01:49:54;6.27;;;3.70;;
11671;SDS011;5892;43.412;24.612;2023-06-10T01:52:21;4.90;;;3.37;;
11671;SDS011;5892;43.412;24.612;2023-06-10T01:54:49;3.63;;;3.33;;
11671;SDS011;5892;43.412;24.612;2023-06-10T01:57:16;8.17;;;3.40;;
11671;SDS011;5892;43.412;24.612;2023-06-10T01:59:44;6.20;;;3.80;;
11671;SDS011;5892;43.412;24.612;2023-06-10T02:02:11;4.83;;;3.53;;
11671;SDS011;5892;43.412;24.612;2023-06-10T02:04:38;4.10;;;3.50;;
11671;SDS011;5892;43.412;24.612;2023-06-10T02:07:05;4.73;;;3.80;;
11671;SDS011;5892;43.412;24.612;2023-06-10T02:09:32;6.17;;;3.63;;
11671;SDS011;5892;43.412;24.612;2023-06-10T02:12:02;4.80;;;3.47;;
11671;SDS011;5892;43.412;24.612;2023-06-10T02:14:30;5.17;;;3.70;;
11671;SDS011;5892;43.412;24.612;2023-06-10T02:16:58;7.07;;;3.73;;
11671;SDS011;5892;43.412;24.612;2023-06-10T02:19:25;8.43;;;3.60;;
11671;SDS011;5892;43.412;24.612;2023-06-10T02:21:53;6.67;;;3.87;;
11671;SDS011;5892;43.412;24.612;2023-06-10T02:24:20;7.50;;;4.37;;
11671;SDS011;5892;43.412;24.612;2023-06-10T02:26:46;7.77;;;4.13;;
11671;SDS011;5892;43.412;24.612;2023-06-10T02:29:15;5.77;;;3.70;;
11671;SDS011;5892;43.412;24.612;2023-06-10T02:31:42;5.03;;;3.80;;
11671;SDS011;5892;43.412;24.612;2023-06-10T02:34:09;6.50;;;3.77;;
11671;SDS011;5892;43.412;24.612;2023-06-10T02:36:36;5.60;;;4.07;;
11671;SDS011;5892;43.412;24.612;2023-06-10T02:39:03;6.37;;;4.00;;
11671;SDS011;5892;43.412;24.612;2023-06-10T02:41:30;4.20;;;3.80;;
11671;SDS011;5892;43.412;24.612;2023-06-10T02:43:57;4.10;;;3.70;;
11671;SDS011;5892;43.412;24.612;2023-06-10T02:46:25;4.77;;;3.80;;
11671;SDS011;5892;43.412;24.612;2023-06-10T02:48:53;6.53;;;3.70;;
11671;SDS011;5892;43.412;24.612;2023-06-10T02:51:20;8.37;;;3.80;;
11671;SDS011;5892;43.412;24.612;2023-06-10T02:53:47;8.13;;;4.10;;
11671;SDS011;5892;43.412;24.612;2023-06-10T02:56:15;7.73;;;4.00;;
11671;SDS011;5892;43.412;24.612;2023-06-10T02:58:42;6.33;;;4.03;;
11671;SDS011;5892;43.412;24.612;2023-06-10T03:01:09;6.30;;;4.40;;
11671;SDS011;5892;43.412;24.612;2023-06-10T03:03:37;7.40;;;4.00;;
11671;SDS011;5892;43.412;24.612;2023-06-10T03:06:09;5.57;;;4.17;;
11671;SDS011;5892;43.412;24.612;2023-06-10T03:08:37;4.77;;;4.20;;
11671;SDS011;5892;43.412;24.612;2023-06-10T03:11:04;5.97;;;4.03;;
11671;SDS011;5892;43.412;24.612;2023-06-10T03:13:31;6.10;;;4.20;;
11671;SDS011;5892;43.412;24.612;2023-06-10T03:15:58;5.87;;;4.30;;
11671;SDS011;5892;43.412;24.612;2023-06-10T03:18:26;5.90;;;4.33;;
11671;SDS011;5892;43.412;24.612;2023-06-10T03:20:55;7.57;;;4.33;;
11671;SDS011;5892;43.412;24.612;2023-06-10T03:23:22;6.80;;;4.20;;
11671;SDS011;5892;43.412;24.612;2023-06-10T03:25:49;6.20;;;3.90;;
11671;SDS011;5892;43.412;24.612;2023-06-10T03:28:16;5.73;;;4.27;;
11671;SDS011;5892;43.412;24.612;2023-06-10T03:30:43;7.13;;;4.10;;
11671;SDS011;5892;43.412;24.612;2023-06-10T03:33:10;5.03;;;4.40;;
11671;SDS011;5892;43.412;24.612;2023-06-10T03:35:37;6.43;;;4.20;;
11671;SDS011;5892;43.412;24.612;2023-06-10T03:38:05;8.37;;;4.40;;
11671;SDS011;5892;43.412;24.612;2023-06-10T03:40:32;6.63;;;4.20;;
11671;SDS011;5892;43.412;24.612;2023-06-10T03:43:00;5.07;;;4.13;;
11671;SDS011;5892;43.412;24.612;2023-06-10T03:45:27;6.63;;;3.87;;
11671;SDS011;5892;43.412;24.612;2023-06-10T03:47:54;8.40;;;4.10;;
11671;SDS011;5892;43.412;24.612;2023-06-10T03:50:22;8.27;;;4.30;;
11671;SDS011;5892;43.412;24.612;2023-06-10T03:52:49;6.70;;;4.33;;
11671;SDS011;5892;43.412;24.612;2023-06-10T03:55:18;5.10;;;4.20;;
11671;SDS011;5892;43.412;24.612;2023-06-10T03:57:47;4.30;;;3.90;;
11671;SDS011;5892;43.412;24.612;2023-06-10T04:00:14;6.47;;;3.97;;
11671;SDS011;5892;43.412;24.612;2023-06-10T04:02:42;6.80;;;4.43;;
11671;SDS011;5892;43.412;24.612;2023-06-10T04:05:13;8.00;;;4.47;;
11671;SDS011;5892;43.412;24.612;2023-06-10T04:07:41;7.67;;;4.03;;
11671;SDS011;5892;43.412;24.612;2023-06-10T04:10:09;5.27;;;4.33;;
11671;SDS011;5892;43.412;24.612;2023-06-10T04:12:38;4.60;;;4.10;;
11671;SDS011;5892;43.412;24.612;2023-06-10T04:15:05;8.27;;;4.37;;
11671;SDS011;5892;43.412;24.612;2023-06-10T04:17:33;5.13;;;4.17;;
11671;SDS011;5892;43.412;24.612;2023-06-10T04:20:00;5.30;;;4.23;;
11671;SDS011;5892;43.412;24.612;2023-06-10T04:22:28;9.67;;;3.97;;
11671;SDS011;5892;43.412;24.612;2023-06-10T04:24:56;5.00;;;3.90;;
11671;SDS011;5892;43.412;24.612;2023-06-10T04:27:22;4.90;;;4.10;;
11671;SDS011;5892;43.412;24.612;2023-06-10T04:29:51;6.77;;;5.00;;
11671;SDS011;5892;43.412;24.612;2023-06-10T04:32:18;5.60;;;4.00;;
11671;SDS011;5892;43.412;24.612;2023-06-10T04:34:45;5.90;;;4.20;;
11671;SDS011;5892;43.412;24.612;2023-06-10T04:37:12;7.73;;;4.53;;
11671;SDS011;5892;43.412;24.612;2023-06-10T04:39:39;8.80;;;4.50;;
11671;SDS011;5892;43.412;24.612;2023-06-10T04:42:07;6.37;;;4.30;;
11671;SDS011;5892;43.412;24.612;2023-06-10T04:44:33;4.40;;;3.93;;
11671;SDS011;5892;43.412;24.612;2023-06-10T04:47:02;6.83;;;3.87;;
11671;SDS011;5892;43.412;24.612;2023-06-10T04:49:29;5.27;;;4.10;;
11671;SDS011;5892;43.412;24.612;2023-06-10T04:51:56;7.43;;;4.00;;
11671;SDS011;5892;43.412;24.612;2023-06-10T04:54:23;7.07;;;4.00;;
11671;SDS011;5892;43.412;24.612;2023-06-10T04:56:50;5.87;;;4.10;;
11671;SDS011;5892;43.412;24.612;2023-06-10T04:59:17;5.83;;;4.13;;
11671;SDS011;5892;43.412;24.612;2023-06-10T05:01:44;7.43;;;4.17;;
11671;SDS011;5892;43.412;24.612;2023-06-10T05:04:12;6.67;;;4.20;;
11671;SDS011;5892;43.412;24.612;2023-06-10T05:06:39;4.97;;;4.20;;
11671;SDS011;5892;43.412;24.612;2023-06-10T05:09:06;4.80;;;4.20;;
11671;SDS011;5892;43.412;24.612;2023-06-10T05:11:33;5.17;;;3.87;;
11671;SDS011;5892;43.412;24.612;2023-06-10T05:14:00;6.63;;;3.60;;
11671;SDS011;5892;43.412;24.612;2023-06-10T05:16:27;6.63;;;4.30;;
11671;SDS011;5892;43.412;24.612;2023-06-10T05:18:54;5.87;;;4.00;;
11671;SDS011;5892;43.412;24.612;2023-06-10T05:21:22;7.40;;;3.67;;
11671;SDS011;5892;43.412;24.612;2023-06-10T05:23:49;4.43;;;3.87;;
11671;SDS011;5892;43.412;24.612;2023-06-10T05:26:15;8.03;;;4.07;;
11671;SDS011;5892;43.412;24.612;2023-06-10T05:28:42;5.23;;;3.80;;
11671;SDS011;5892;43.412;24.612;2023-06-10T05:31:09;7.27;;;4.00;;
11671;SDS011;5892;43.412;24.612;2023-06-10T05:33:36;5.50;;;3.70;;
11671;SDS011;5892;43.412;24.612;2023-06-10T05:36:03;4.20;;;3.70;;
11671;SDS011;5892;43.412;24.612;2023-06-10T05:38:32;5.87;;;4.00;;
11671;SDS011;5892;43.412;24.612;2023-06-10T05:40:59;9.20;;;3.67;;
11671;SDS011;5892;43.412;24.612;2023-06-10T05:43:25;7.33;;;3.93;;
11671;SDS011;5892;43.412;24.612;2023-06-10T05:45:52;5.20;;;3.90;;
11671;SDS011;5892;43.412;24.612;2023-06-10T05:48:19;5.67;;;3.27;;
11671;SDS011;5892;43.412;24.612;2023-06-10T05:50:46;4.50;;;3.50;;
11671;SDS011;5892;43.412;24.612;2023-06-10T05:53:13;5.03;;;3.50;;
11671;SDS011;5892;43.412;24.612;2023-06-10T05:55:42;6.30;;;3.97;;
11671;SDS011;5892;43.412;24.612;2023-06-10T05:58:10;7.07;;;4.17;;
11671;SDS011;5892;43.412;24.612;2023-06-10T06:00:38;7.87;;;3.93;;
11671;SDS011;5892;43.412;24.612;2023-06-10T06:03:06;5.93;;;3.60;;
11671;SDS011;5892;43.412;24.612;2023-06-10T06:05:34;5.87;;;3.83;;
11671;SDS011;5892;43.412;24.612;2023-06-10T06:08:02;4.77;;;3.90;;
11671;SDS011;5892;43.412;24.612;2023-06-10T06:10:29;5.27;;;4.10;;
11671;SDS011;5892;43.412;24.612;2023-06-10T06:12:58;6.60;;;3.70;;
11671;SDS011;5892;43.412;24.612;2023-06-10T06:15:25;4.57;;;3.70;;
11671;SDS011;5892;43.412;24.612;2023-06-10T06:17:51;4.83;;;3.60;;
11671;SDS011;5892;43.412;24.612;2023-06-10T06:20:18;6.10;;;4.10;;
11671;SDS011;5892;43.412;24.612;2023-06-10T06:22:46;5.77;;;4.07;;
11671;SDS011;5892;43.412;24.612;2023-06-10T06:25:12;5.17;;;3.90;;
11671;SDS011;5892;43.412;24.612;2023-06-10T06:27:39;8.43;;;3.80;;
11671;SDS011;5892;43.412;24.612;2023-06-10T06:30:08;5.43;;;3.83;;
11671;SDS011;5892;43.412;24.612;2023-06-10T06:32:35;7.60;;;4.50;;
11671;SDS011;5892;43.412;24.612;2023-06-10T06:35:03;6.10;;;4.00;;
11671;SDS011;5892;43.412;24.612;2023-06-10T06:37:32;5.93;;;3.90;;
11671;SDS011;5892;43.412;24.612;2023-06-10T06:40:00;5.30;;;4.10;;
11671;SDS011;5892;43.412;24.612;2023-06-10T06:42:27;5.23;;;4.30;;
11671;SDS011;5892;43.412;24.612;2023-06-10T06:44:54;9.93;;;4.30;;
11671;SDS011;5892;43.412;24.612;2023-06-10T06:47:22;4.90;;;4.40;;
11671;SDS011;5892;43.412;24.612;2023-06-10T06:49:50;5.93;;;4.10;;
11671;SDS011;5892;43.412;24.612;2023-06-10T06:52:17;7.53;;;4.57;;
11671;SDS011;5892;43.412;24.612;2023-06-10T06:54:44;7.00;;;4.20;;
11671;SDS011;5892;43.412;24.612;2023-06-10T06:57:11;9.37;;;4.33;;
11671;SDS011;5892;43.412;24.612;2023-06-10T06:59:38;5.67;;;4.30;;
11671;SDS011;5892;43.412;24.612;2023-06-10T07:02:05;6.77;;;4.23;;
11671;SDS011;5892;43.412;24.612;2023-06-10T07:04:33;5.80;;;4.20;;
11671;SDS011;5892;43.412;24.612;2023-06-10T07:07:00;5.17;;;4.57;;
11671;SDS011;5892;43.412;24.612;2023-06-10T07:09:27;9.93;;;4.30;;
11671;SDS011;5892;43.412;24.612;2023-06-10T07:11:54;4.90;;;3.90;;
11671;SDS011;5892;43.412;24.612;2023-06-10T07:14:21;8.10;;;4.27;;
11671;SDS011;5892;43.412;24.612;2023-06-10T07:16:48;5.57;;;3.97;;
11671;SDS011;5892;43.412;24.612;2023-06-10T07:19:15;5.13;;;4.23;;
11671;SDS011;5892;43.412;24.612;2023-06-10T07:21:43;5.17;;;4.10;;
11671;SDS011;5892;43.412;24.612;2023-06-10T07:24:10;8.30;;;4.23;;
11671;SDS011;5892;43.412;24.612;2023-06-10T07:26:37;22.63;;;6.50;;
11671;SDS011;5892;43.412;24.612;2023-06-10T07:29:03;6.20;;;4.90;;
11671;SDS011;5892;43.412;24.612;2023-06-10T07:31:30;9.13;;;4.80;;
11671;SDS011;5892;43.412;24.612;2023-06-10T07:33:57;5.63;;;4.80;;
11671;SDS011;5892;43.412;24.612;2023-06-10T07:36:24;4.83;;;4.33;;
11671;SDS011;5892;43.412;24.612;2023-06-10T07:38:53;6.77;;;5.00;;
11671;SDS011;5892;43.412;24.612;2023-06-10T07:41:20;15.20;;;4.60;;
11671;SDS011;5892;43.412;24.612;2023-06-10T07:43:50;7.83;;;4.60;;
11671;SDS011;5892;43.412;24.612;2023-06-10T07:46:19;6.33;;;4.43;;
11671;SDS011;5892;43.412;24.612;2023-06-10T07:48:46;12.23;;;4.70;;
11671;SDS011;5892;43.412;24.612;2023-06-10T07:51:13;6.30;;;4.37;;
11671;SDS011;5892;43.412;24.612;2023-06-10T07:53:41;8.50;;;4.80;;
11671;SDS011;5892;43.412;24.612;2023-06-10T07:56:10;10.23;;;4.60;;
11671;SDS011;5892;43.412;24.612;2023-06-10T07:58:38;10.40;;;4.53;;
11671;SDS011;5892;43.412;24.612;2023-06-10T08:01:05;7.30;;;4.40;;
11671;SDS011;5892;43.412;24.612;2023-06-10T08:03:32;5.50;;;4.30;;
11671;SDS011;5892;43.412;24.612;2023-06-10T08:05:59;7.03;;;4.30;;
11671;SDS011;5892;43.412;24.612;2023-06-10T08:08:26;8.13;;;4.50;;
11671;SDS011;5892;43.412;24.612;2023-06-10T08:10:55;6.73;;;4.30;;
11671;SDS011;5892;43.412;24.612;2023-06-10T08:13:24;6.00;;;4.47;;
11671;SDS011;5892;43.412;24.612;2023-06-10T08:15:50;4.43;;;4.03;;
11671;SDS011;5892;43.412;24.612;2023-06-10T08:18:20;7.47;;;4.33;;
11671;SDS011;5892;43.412;24.612;2023-06-10T08:20:47;4.70;;;3.90;;
11671;SDS011;5892;43.412;24.612;2023-06-10T08:23:13;8.87;;;4.50;;
11671;SDS011;5892;43.412;24.612;2023-06-10T08:25:40;5.40;;;4.33;;
11671;SDS011;5892;43.412;24.612;2023-06-10T08:28:07;5.97;;;3.83;;
11671;SDS011;5892;43.412;24.612;2023-06-10T08:30:36;8.10;;;4.03;;
11671;SDS011;5892;43.412;24.612;2023-06-10T08:33:02;5.40;;;4.30;;
11671;SDS011;5892;43.412;24.612;2023-06-10T08:35:29;7.53;;;4.87;;
11671;SDS011;5892;43.412;24.612;2023-06-10T08:37:56;6.07;;;4.40;;
11671;SDS011;5892;43.412;24.612;2023-06-10T08:40:23;7.70;;;4.60;;
11671;SDS011;5892;43.412;24.612;2023-06-10T08:42:52;7.17;;;4.00;;
11671;SDS011;5892;43.412;24.612;2023-06-10T08:45:25;5.10;;;4.47;;
11671;SDS011;5892;43.412;24.612;2023-06-10T08:47:58;6.73;;;4.07;;
11671;SDS011;5892;43.412;24.612;2023-06-10T08:50:26;7.13;;;4.63;;
11671;SDS011;5892;43.412;24.612;2023-06-10T08:52:57;7.23;;;3.80;;
11671;SDS011;5892;43.412;24.612;2023-06-10T08:55:27;4.53;;;3.97;;
11671;SDS011;5892;43.412;24.612;2023-06-10T08:57:56;5.03;;;4.03;;
11671;SDS011;5892;43.412;24.612;2023-06-10T09:00:24;4.27;;;3.87;;
11671;SDS011;5892;43.412;24.612;2023-06-10T09:02:52;5.90;;;4.13;;
11671;SDS011;5892;43.412;24.612;2023-06-10T09:05:21;4.60;;;4.17;;
11671;SDS011;5892;43.412;24.612;2023-06-10T09:07:48;5.63;;;4.00;;
11671;SDS011;5892;43.412;24.612;2023-06-10T09:10:19;8.43;;;4.20;;
11671;SDS011;5892;43.412;24.612;2023-06-10T09:12:46;9.90;;;4.20;;
11671;SDS011;5892;43.412;24.612;2023-06-10T09:15:13;6.23;;;3.90;;
11671;SDS011;5892;43.412;24.612;2023-06-10T09:17:42;6.47;;;3.90;;
11671;SDS011;5892;43.412;24.612;2023-06-10T09:20:10;6.00;;;4.07;;
11671;SDS011;5892;43.412;24.612;2023-06-10T09:22:38;5.50;;;4.07;;
11671;SDS011;5892;43.412;24.612;2023-06-10T09:25:08;6.27;;;3.97;;
11671;SDS011;5892;43.412;24.612;2023-06-10T09:27:44;5.20;;;4.00;;
11671;SDS011;5892;43.412;24.612;2023-06-10T09:30:23;5.97;;;3.80;;
11671;SDS011;5892;43.412;24.612;2023-06-10T09:32:52;4.47;;;4.03;;
11671;SDS011;5892;43.412;24.612;2023-06-10T09:35:22;8.70;;;3.87;;
11671;SDS011;5892;43.412;24.612;2023-06-10T09:37:52;7.83;;;4.03;;
11671;SDS011;5892;43.412;24.612;2023-06-10T09:40:20;4.80;;;4.07;;
11671;SDS011;5892;43.412;24.612;2023-06-10T09:42:47;9.27;;;4.67;;
11671;SDS011;5892;43.412;24.612;2023-06-10T09:45:20;5.80;;;4.43;;
11671;SDS011;5892;43.412;24.612;2023-06-10T09:47:50;6.10;;;4.20;;
11671;SDS011;5892;43.412;24.612;2023-06-10T09:50:19;6.73;;;4.03;;
11671;SDS011;5892;43.412;24.612;2023-06-10T09:52:46;6.27;;;3.97;;
11671;SDS011;5892;43.412;24.612;2023-06-10T09:55:15;5.30;;;4.10;;
11671;SDS011;5892;43.412;24.612;2023-06-10T09:57:43;7.00;;;4.77;;
11671;SDS011;5892;43.412;24.612;2023-06-10T10:00:13;9.37;;;4.73;;
11671;SDS011;5892;43.412;24.612;2023-06-10T10:02:45;7.60;;;5.10;;
11671;SDS011;5892;43.412;24.612;2023-06-10T10:05:13;9.47;;;5.20;;
11671;SDS011;5892;43.412;24.612;2023-06-10T10:07:41;6.73;;;4.50;;
11671;SDS011;5892;43.412;24.612;2023-06-10T10:10:08;12.27;;;5.20;;
11671;SDS011;5892;43.412;24.612;2023-06-10T10:12:39;5.27;;;4.67;;
11671;SDS011;5892;43.412;24.612;2023-06-10T10:15:06;10.53;;;5.13;;
11671;SDS011;5892;43.412;24.612;2023-06-10T10:17:34;6.30;;;4.60;;
11671;SDS011;5892;43.412;24.612;2023-06-10T10:20:06;7.60;;;4.60;;
11671;SDS011;5892;43.412;24.612;2023-06-10T10:22:35;5.30;;;4.80;;
11671;SDS011;5892;43.412;24.612;2023-06-10T10:25:08;6.53;;;4.60;;
11671;SDS011;5892;43.412;24.612;2023-06-10T10:27:43;10.77;;;4.97;;
11671;SDS011;5892;43.412;24.612;2023-06-10T10:30:14;8.27;;;4.93;;
11671;SDS011;5892;43.412;24.612;2023-06-10T10:32:46;7.40;;;4.67;;
11671;SDS011;5892;43.412;24.612;2023-06-10T10:35:22;6.60;;;5.10;;
11671;SDS011;5892;43.412;24.612;2023-06-10T10:37:51;7.93;;;4.37;;
11671;SDS011;5892;43.412;24.612;2023-06-10T10:40:19;4.87;;;4.20;;
11671;SDS011;5892;43.412;24.612;2023-06-10T10:42:48;7.57;;;4.17;;
11671;SDS011;5892;43.412;24.612;2023-06-10T10:45:16;6.30;;;4.10;;
11671;SDS011;5892;43.412;24.612;2023-06-10T10:47:43;6.50;;;4.03;;
11671;SDS011;5892;43.412;24.612;2023-06-10T10:50:15;6.13;;;4.23;;
11671;SDS011;5892;43.412;24.612;2023-06-10T10:52:50;4.90;;;4.17;;
11671;SDS011;5892;43.412;24.612;2023-06-10T10:55:19;8.43;;;4.13;;
11671;SDS011;5892;43.412;24.612;2023-06-10T10:57:54;6.07;;;3.50;;
11671;SDS011;5892;43.412;24.612;2023-06-10T11:00:28;5.33;;;4.03;;
11671;SDS011;5892;43.412;24.612;2023-06-10T11:02:59;5.57;;;3.60;;
11671;SDS011;5892;43.412;24.612;2023-06-10T11:05:35;6.77;;;3.77;;
11671;SDS011;5892;43.412;24.612;2023-06-10T11:08:04;6.30;;;3.67;;
11671;SDS011;5892;43.412;24.612;2023-06-10T11:10:32;4.20;;;3.57;;
11671;SDS011;5892;43.412;24.612;2023-06-10T11:13:02;6.47;;;3.70;;
11671;SDS011;5892;43.412;24.612;2023-06-10T11:15:33;5.27;;;3.70;;
11671;SDS011;5892;43.412;24.612;2023-06-10T11:20:59;4.00;;;3.40;;
11671;SDS011;5892;43.412;24.612;2023-06-10T11:23:30;5.37;;;3.40;;
11671;SDS011;5892;43.412;24.612;2023-06-10T11:26:12;4.97;;;3.77;;
11671;SDS011;5892;43.412;24.612;2023-06-10T11:31:33;4.30;;;3.53;;
11671;SDS011;5892;43.412;24.612;2023-06-10T11:34:05;5.22;;;3.67;;
11671;SDS011;5892;43.412;24.612;2023-06-10T11:36:34;8.97;;;3.83;;
11671;SDS011;5892;43.412;24.612;2023-06-10T11:39:05;6.13;;;3.40;;
11671;SDS011;5892;43.412;24.612;2023-06-10T11:41:33;4.57;;;3.60;;
11671;SDS011;5892;43.412;24.612;2023-06-10T11:44:02;4.50;;;3.60;;
11671;SDS011;5892;43.412;24.612;2023-06-10T11:46:33;3.83;;;3.43;;
11671;SDS011;5892;43.412;24.612;2023-06-10T11:49:00;5.33;;;3.40;;
11671;SDS011;5892;43.412;24.612;2023-06-10T11:51:29;5.95;;;3.35;;
11671;SDS011;5892;43.412;24.612;2023-06-10T11:53:58;7.32;;;3.50;;
11671;SDS011;5892;43.412;24.612;2023-06-10T11:56:26;6.80;;;3.50;;
11671;SDS011;5892;43.412;24.612;2023-06-10T11:58:55;4.97;;;3.65;;
11671;SDS011;5892;43.412;24.612;2023-06-10T12:01:27;4.78;;;3.28;;
11671;SDS011;5892;43.412;24.612;2023-06-10T12:03:58;5.40;;;3.25;;
11671;SDS011;5892;43.412;24.612;2023-06-10T12:06:27;4.90;;;3.38;;
11671;SDS011;5892;43.412;24.612;2023-06-10T12:09:03;6.05;;;3.35;;
11671;SDS011;5892;43.412;24.612;2023-06-10T12:11:31;5.18;;;3.30;;
11671;SDS011;5892;43.412;24.612;2023-06-10T12:13:58;5.45;;;4.07;;
11671;SDS011;5892;43.412;24.612;2023-06-10T12:16:27;4.15;;;3.30;;
11671;SDS011;5892;43.412;24.612;2023-06-10T12:19:00;4.78;;;3.25;;
11671;SDS011;5892;43.412;24.612;2023-06-10T12:21:28;4.68;;;3.15;;
11671;SDS011;5892;43.412;24.612;2023-06-10T12:24:02;3.55;;;3.25;;
11671;SDS011;5892;43.412;24.612;2023-06-10T12:26:38;5.10;;;3.38;;
11671;SDS011;5892;43.412;24.612;2023-06-10T12:31:59;5.30;;;3.63;;
11671;SDS011;5892;43.412;24.612;2023-06-10T12:34:33;6.20;;;3.60;;
11671;SDS011;5892;43.412;24.612;2023-06-10T12:37:02;5.63;;;3.67;;
11671;SDS011;5892;43.412;24.612;2023-06-10T12:39:32;6.83;;;3.70;;
11671;SDS011;5892;43.412;24.612;2023-06-10T12:41:59;4.37;;;3.53;;
11671;SDS011;5892;43.412;24.612;2023-06-10T12:44:31;5.53;;;3.90;;
11671;SDS011;5892;43.412;24.612;2023-06-10T12:47:00;14.17;;;4.17;;
11671;SDS011;5892;43.412;24.612;2023-06-10T12:49:33;13.37;;;5.33;;
11671;SDS011;5892;43.412;24.612;2023-06-10T12:52:04;8.23;;;4.73;;
11671;SDS011;5892;43.412;24.612;2023-06-10T12:54:32;21.00;;;7.30;;
11671;SDS011;5892;43.412;24.612;2023-06-10T12:57:00;11.27;;;4.57;;
11671;SDS011;5892;43.412;24.612;2023-06-10T12:59:27;9.97;;;5.23;;
11671;SDS011;5892;43.412;24.612;2023-06-10T13:01:54;13.90;;;6.33;;
11671;SDS011;5892;43.412;24.612;2023-06-10T13:04:23;9.57;;;4.83;;
11671;SDS011;5892;43.412;24.612;2023-06-10T13:06:49;9.77;;;4.50;;
11671;SDS011;5892;43.412;24.612;2023-06-10T13:09:16;6.87;;;5.10;;
11671;SDS011;5892;43.412;24.612;2023-06-10T13:11:43;6.47;;;4.77;;
11671;SDS011;5892;43.412;24.612;2023-06-10T13:14:10;10.03;;;5.00;;
11671;SDS011;5892;43.412;24.612;2023-06-10T13:16:37;5.97;;;4.80;;
11671;SDS011;5892;43.412;24.612;2023-06-10T13:19:05;7.73;;;5.10;;
11671;SDS011;5892;43.412;24.612;2023-06-10T13:21:33;6.07;;;4.20;;
11671;SDS011;5892;43.412;24.612;2023-06-10T13:24:01;6.83;;;4.47;;
11671;SDS011;5892;43.412;24.612;2023-06-10T13:26:29;4.80;;;4.30;;
11671;SDS011;5892;43.412;24.612;2023-06-10T13:28:56;5.73;;;4.27;;
11671;SDS011;5892;43.412;24.612;2023-06-10T13:31:23;5.17;;;4.00;;
11671;SDS011;5892;43.412;24.612;2023-06-10T13:33:50;5.57;;;4.27;;
11671;SDS011;5892;43.412;24.612;2023-06-10T13:36:16;5.83;;;4.13;;
11671;SDS011;5892;43.412;24.612;2023-06-10T13:38:45;5.00;;;4.20;;
11671;SDS011;5892;43.412;24.612;2023-06-10T13:41:12;6.33;;;4.13;;
11671;SDS011;5892;43.412;24.612;2023-06-10T13:43:39;6.20;;;3.90;;
11671;SDS011;5892;43.412;24.612;2023-06-10T13:46:06;7.07;;;4.07;;
11671;SDS011;5892;43.412;24.612;2023-06-10T13:48:34;4.03;;;3.53;;
11671;SDS011;5892;43.412;24.612;2023-06-10T13:51:01;4.73;;;3.90;;
11671;SDS011;5892;43.412;24.612;2023-06-10T13:53:28;5.17;;;3.87;;
11671;SDS011;5892;43.412;24.612;2023-06-10T13:55:56;7.03;;;4.03;;
11671;SDS011;5892;43.412;24.612;2023-06-10T13:58:23;5.87;;;4.17;;
11671;SDS011;5892;43.412;24.612;2023-06-10T14:00:50;7.53;;;3.80;;
11671;SDS011;5892;43.412;24.612;2023-06-10T14:03:17;7.33;;;3.70;;
11671;SDS011;5892;43.412;24.612;2023-06-10T14:05:44;4.77;;;3.77;;
11671;SDS011;5892;43.412;24.612;2023-06-10T14:08:10;4.63;;;3.63;;
11671;SDS011;5892;43.412;24.612;2023-06-10T14:10:38;4.60;;;3.43;;
11671;SDS011;5892;43.412;24.612;2023-06-10T14:13:06;6.77;;;4.27;;
11671;SDS011;5892;43.412;24.612;2023-06-10T14:15:33;4.23;;;3.83;;
11671;SDS011;5892;43.412;24.612;2023-06-10T14:18:00;4.70;;;3.30;;
11671;SDS011;5892;43.412;24.612;2023-06-10T14:20:27;3.70;;;3.20;;
11671;SDS011;5892;43.412;24.612;2023-06-10T14:22:56;3.60;;;3.30;;
11671;SDS011;5892;43.412;24.612;2023-06-10T14:25:25;6.60;;;4.17;;
11671;SDS011;5892;43.412;24.612;2023-06-10T14:27:52;6.03;;;3.40;;
11671;SDS011;5892;43.412;24.612;2023-06-10T14:30:20;4.23;;;3.50;;
11671;SDS011;5892;43.412;24.612;2023-06-10T14:32:47;7.27;;;3.60;;
11671;SDS011;5892;43.412;24.612;2023-06-10T14:35:16;4.70;;;3.30;;
11671;SDS011;5892;43.412;24.612;2023-06-10T14:37:42;4.93;;;3.53;;
11671;SDS011;5892;43.412;24.612;2023-06-10T14:40:09;7.60;;;3.90;;
11671;SDS011;5892;43.412;24.612;2023-06-10T14:42:36;5.20;;;3.83;;
11671;SDS011;5892;43.412;24.612;2023-06-10T14:45:04;7.87;;;3.70;;
11671;SDS011;5892;43.412;24.612;2023-06-10T14:47:36;8.13;;;3.37;;
11671;SDS011;5892;43.412;24.612;2023-06-10T14:50:03;4.70;;;2.97;;
11671;SDS011;5892;43.412;24.612;2023-06-10T14:52:31;4.97;;;2.87;;
11671;SDS011;5892;43.412;24.612;2023-06-10T14:54:57;6.43;;;2.73;;
11671;SDS011;5892;43.412;24.612;2023-06-10T14:57:24;4.37;;;2.63;;
11671;SDS011;5892;43.412;24.612;2023-06-10T14:59:51;14.07;;;4.60;;
11671;SDS011;5892;43.412;24.612;2023-06-10T15:02:18;6.23;;;3.50;;